METAR Data
IDs: Format: Raw Decoded Include TAF

Data at: 0222 UTC 10 Dec 2022

METAR for:KZZV (Zanesville Muni, OH, US)
Text:KZZV 100153Z AUTO 02004KT 9SM -RA BKN028 BKN036 OVC055 06/03 A3013 RMK AO2 SLP208 P0006 T00560028
Temperature: 5.6°C ( 42°F)
Dewpoint: 2.8°C ( 37°F) [RH = 82%]
Pressure (altimeter):30.13 inches Hg (1020.4 mb) [Sea level pressure: 1020.8 mb]
Winds:from the NNE (20 degrees) at 5 MPH (4 knots; 2.1 m/s)
Visibility: 9 sm ( 14 km)
Ceiling:2800 feet AGL
Clouds: broken clouds at 2800 feet AGL, broken clouds at 3600 feet AGL, overcast cloud deck at 5500 feet AGL
Weather:-RA (light rain)
QC Flag:automated observation with no human augmentation